Batavia, OH

10:51 PM EST on February 11, 2016 (GMT -0500)
Clermont County, Batavia | | Change Station
CLOSE
Current Station
Airport
Location: Clermont County, Batavia,
Elevation: 840 ft
Nearby Weather Stations

Elev 840 ft 39.08 °N, 84.21 °W | Updated 15 minutes ago

Clear
Clear
18 °F
Feels Like 18 °F
N
0
Wind Variable Wind from North

Today
High -- | Low -- °F
--% Chance of Precip.
Yesterday
High -- | Low -- °F
Precip. -- in
Pressure 30.30 in
Visibility 10.0 miles
Clouds Clear
Dew Point 6 °F
Humidity 59%
Rainfall 0.00 in
Snow Depth Not available.
7:33 AM 6:09 PM
Waxing Crescent, 17% visible
METAR KI69 120336Z AUTO 00000KT 10SM CLR M07/M14 A3030 RMK AO2 T10751142
Pressure 30.30 in
Visibility 10.0 miles
Clouds Clear
Dew Point 6 °F
Humidity 59%
Rainfall 0.00 in
Snow Depth Not available.
7:33 AM 6:09 PM
Waxing Crescent, 17% visible
METAR KI69 120336Z AUTO 00000KT 10SM CLR M07/M14 A3030 RMK AO2 T10751142

10-Day Weather Forecast

Almanac

Astronomy

Feb. 11, 2016 Rise Set
Actual Time
Civil Twilight
Nautical Twilight
Astronomical Twilight
Moon
Length of Visible Light
Length of Day
Tomorrow will be .
, % of the Moon is Illuminated

Today's Extremes

State Highs State Lows

Community

WunderPhotos

Upload Photos

1,892,254 photos uploaded!

WunderBlog® & News

Nearby

Air Quality

  Air Quality AQ Index Pollutant
Not available.

Snow Depth

Station Depth Elevation

Earthquake Activity

City Distance Mag. Time & Date
Minimum magnitude displayed is 2.5.

Coastal Water Temperatures

Place Temperature

Stations

Nearby Weather Stations

Station Location Temp. Windchill Dew Point Humidity Wind Precip. Elev Updated Type
                   

Watches & Warnings

There are currently no watches in effect.